createdAt,value
2022-10-18T00:00:18.052Z,99207.88
2022-10-18T00:02:44.720Z,99212.47
2022-10-18T00:05:11.615Z,99216.66
2022-10-18T00:07:38.204Z,99218.22
2022-10-18T00:10:05.558Z,99210.94
2022-10-18T00:12:34.650Z,99216.09
2022-10-18T00:15:01.885Z,99226.78
2022-10-18T00:17:29.281Z,99217.13
2022-10-18T00:19:56.118Z,99218.13
2022-10-18T00:22:23.080Z,99224.50
2022-10-18T00:24:49.844Z,99221.97
2022-10-18T00:27:16.503Z,99219.00
2022-10-18T00:29:43.256Z,99213.81
2022-10-18T00:32:11.966Z,99211.34
2022-10-18T00:34:40.152Z,99207.72
2022-10-18T00:37:06.988Z,99198.59
2022-10-18T00:39:34.519Z,99196.34
2022-10-18T00:42:01.349Z,99197.06
2022-10-18T00:44:27.875Z,99199.59
2022-10-18T00:47:05.002Z,99192.41
2022-10-18T00:49:35.281Z,99190.31
2022-10-18T00:52:11.456Z,99188.44
2022-10-18T00:54:41.480Z,99178.63
2022-10-18T00:57:08.632Z,99181.22
2022-10-18T00:59:36.983Z,99217.63
2022-10-18T01:02:05.644Z,99261.28
2022-10-18T01:04:32.656Z,99245.25
2022-10-18T01:07:27.375Z,99241.91
2022-10-18T01:10:00.242Z,99248.22
2022-10-18T01:12:45.506Z,99245.25
2022-10-18T01:15:15.647Z,99249.47
2022-10-18T01:18:01.588Z,99250.00
2022-10-18T01:21:05.758Z,99238.47
2022-10-18T01:23:53.581Z,99224.19
2022-10-18T01:26:32.182Z,99230.25
2022-10-18T01:29:01.985Z,99220.53
2022-10-18T01:31:36.976Z,99220.22
2022-10-18T01:34:10.104Z,99224.50
2022-10-18T01:36:44.013Z,99213.75
2022-10-18T01:39:21.755Z,99220.34
2022-10-18T01:41:50.732Z,99207.13
2022-10-18T01:44:24.245Z,99204.00
2022-10-18T01:46:56.341Z,99207.09
2022-10-18T01:49:24.867Z,99203.81
2022-10-18T01:51:51.760Z,99194.69
2022-10-18T01:54:26.019Z,99198.34
2022-10-18T01:57:01.218Z,99196.00
2022-10-18T02:00:06.983Z,99199.06
2022-10-18T02:02:45.277Z,99196.59
2022-10-18T02:05:30.608Z,99198.00
2022-10-18T02:08:23.264Z,99193.56
2022-10-18T02:10:58.995Z,99190.22
2022-10-18T02:13:30.476Z,99194.38
2022-10-18T02:16:04.740Z,99187.25
2022-10-18T02:18:39.546Z,99190.00
2022-10-18T02:21:10.809Z,99181.28
2022-10-18T02:23:38.814Z,99175.09
2022-10-18T02:26:06.586Z,99188.34
2022-10-18T02:28:33.268Z,99204.16
2022-10-18T02:31:02.907Z,99190.09
2022-10-18T02:33:39.609Z,99192.09
2022-10-18T02:36:13.959Z,99191.97
2022-10-18T02:38:42.072Z,99191.09
2022-10-18T02:41:08.669Z,99182.44
2022-10-18T02:43:35.525Z,99187.09
2022-10-18T02:46:02.881Z,99186.28
2022-10-18T02:48:29.714Z,99183.69
2022-10-18T02:50:56.376Z,99183.16
2022-10-18T02:53:23.013Z,99193.47
2022-10-18T02:55:49.666Z,99198.63
2022-10-18T02:58:16.302Z,99195.28
2022-10-18T03:00:42.949Z,99200.78
2022-10-18T03:03:09.659Z,99201.00
2022-10-18T03:05:36.312Z,99194.84
2022-10-18T03:08:03.391Z,99193.09
2022-10-18T03:10:30.020Z,99193.09
2022-10-18T03:12:56.644Z,99196.66
2022-10-18T03:15:23.268Z,99202.69
2022-10-18T03:17:49.875Z,99210.75
2022-10-18T03:20:16.525Z,99216.97
2022-10-18T03:22:43.144Z,99211.72
2022-10-18T03:25:09.755Z,99218.91
2022-10-18T03:27:36.360Z,99229.50
2022-10-18T03:30:05.597Z,99220.28
2022-10-18T03:32:32.492Z,99215.50
2022-10-18T03:34:59.349Z,99229.59
2022-10-18T03:37:25.952Z,99230.31
2022-10-18T03:39:52.547Z,99232.78
2022-10-18T03:42:19.177Z,99236.94
2022-10-18T03:44:45.805Z,99242.31
2022-10-18T03:47:12.846Z,99247.66
2022-10-18T03:49:39.545Z,99246.38
2022-10-18T03:52:06.231Z,99254.22
2022-10-18T03:54:33.036Z,99253.34
2022-10-18T03:56:59.683Z,99257.06
2022-10-18T03:59:26.560Z,99254.22
2022-10-18T04:01:53.368Z,99258.00
2022-10-18T04:04:20.162Z,99260.47
2022-10-18T04:06:46.915Z,99264.03
2022-10-18T04:09:13.696Z,99251.69
2022-10-18T04:11:40.459Z,99263.22
2022-10-18T04:14:07.098Z,99261.09
2022-10-18T04:16:33.805Z,99266.97
2022-10-18T04:19:00.437Z,99269.25
2022-10-18T04:21:27.103Z,99269.16
2022-10-18T04:23:53.785Z,99275.50
2022-10-18T04:26:20.421Z,99280.91
2022-10-18T04:28:47.094Z,99279.25
2022-10-18T04:31:13.966Z,99266.97
2022-10-18T04:33:40.714Z,99267.72
2022-10-18T04:36:07.635Z,99242.75
2022-10-18T04:38:34.436Z,99235.06
2022-10-18T04:41:01.098Z,99227.31
2022-10-18T04:43:27.789Z,99218.22
2022-10-18T04:45:54.427Z,99197.84
2022-10-18T04:48:21.155Z,99217.06
2022-10-18T04:50:49.780Z,99222.06
2022-10-18T04:53:17.959Z,99229.84
2022-10-18T04:55:46.046Z,99232.94
2022-10-18T04:58:12.819Z,99224.47
2022-10-18T05:00:40.241Z,99224.31
2022-10-18T05:03:07.395Z,99230.56
2022-10-18T05:05:49.788Z,99242.75
2022-10-18T05:08:20.993Z,99247.09
2022-10-18T05:10:47.597Z,99255.88
2022-10-18T05:13:14.287Z,99258.78
2022-10-18T05:15:40.929Z,99254.28
2022-10-18T05:18:07.683Z,99262.44
2022-10-18T05:20:34.320Z,99255.97
2022-10-18T05:23:00.929Z,99257.13
2022-10-18T05:25:27.518Z,99264.97
2022-10-18T05:27:54.139Z,99273.88
2022-10-18T05:30:21.754Z,99275.75
2022-10-18T05:32:48.494Z,99293.84
2022-10-18T05:35:15.387Z,99284.91
2022-10-18T05:37:42.182Z,99289.63
2022-10-18T05:40:09.579Z,99298.63
2022-10-18T05:42:36.371Z,99298.13
2022-10-18T05:45:03.769Z,99301.53
2022-10-18T05:47:30.595Z,99300.66
2022-10-18T05:49:57.527Z,99294.91
2022-10-18T05:52:24.467Z,99305.22
2022-10-18T05:54:51.252Z,99295.56
2022-10-18T05:57:18.039Z,99297.19
2022-10-18T05:59:44.897Z,99290.94
2022-10-18T06:02:12.380Z,99290.00
2022-10-18T06:04:39.012Z,99300.88
2022-10-18T06:07:12.066Z,99302.97
2022-10-18T06:09:39.030Z,99301.75
2022-10-18T06:12:05.930Z,99302.69
2022-10-18T06:14:32.796Z,99305.25
2022-10-18T06:16:59.482Z,99306.69
2022-10-18T06:19:26.095Z,99310.97
2022-10-18T06:21:52.711Z,99304.66
2022-10-18T06:24:21.513Z,99318.16
2022-10-18T06:26:48.223Z,99306.47
2022-10-18T06:29:15.028Z,99318.88
2022-10-18T06:31:41.736Z,99318.94
2022-10-18T06:34:08.344Z,99324.16
2022-10-18T06:36:35.029Z,99328.53
2022-10-18T06:39:02.506Z,99335.44
2022-10-18T06:41:29.109Z,99326.44
2022-10-18T06:44:07.060Z,99335.28
2022-10-18T06:46:33.785Z,99340.28
2022-10-18T06:49:00.368Z,99342.09
2022-10-18T06:51:27.143Z,99338.47
2022-10-18T06:54:06.162Z,99344.63
2022-10-18T06:56:39.923Z,99343.50
2022-10-18T06:59:06.559Z,99347.69
2022-10-18T07:01:33.376Z,99353.44
2022-10-18T07:04:00.122Z,99356.19
2022-10-18T07:06:27.167Z,99356.69
2022-10-18T07:08:54.167Z,99367.09
2022-10-18T07:11:25.895Z,99362.66
2022-10-18T07:13:54.470Z,99362.84
2022-10-18T07:16:21.503Z,99363.69
2022-10-18T07:18:50.525Z,99366.16
2022-10-18T07:21:19.718Z,99369.09
2022-10-18T07:23:47.149Z,99361.25
2022-10-18T07:26:16.636Z,99368.38
2022-10-18T07:28:44.741Z,99376.31
2022-10-18T07:31:12.763Z,99382.91
2022-10-18T07:33:39.709Z,99382.84
2022-10-18T07:36:08.438Z,99379.34
2022-10-18T07:38:36.256Z,99376.59
2022-10-18T07:41:06.392Z,99387.13
2022-10-18T07:43:33.575Z,99384.44
2022-10-18T07:46:02.781Z,99380.16
2022-10-18T07:48:29.861Z,99389.09
2022-10-18T07:51:00.894Z,99392.03
2022-10-18T07:53:28.659Z,99394.47
2022-10-18T07:56:05.956Z,99404.03
2022-10-18T07:58:35.381Z,99411.22
2022-10-18T08:01:04.566Z,99402.28
2022-10-18T08:03:31.576Z,99416.38
2022-10-18T08:05:58.599Z,99409.13
2022-10-18T08:08:26.165Z,99411.88
2022-10-18T08:10:52.882Z,99416.25
2022-10-18T08:13:20.420Z,99416.09
2022-10-18T08:15:47.406Z,99420.25
2022-10-18T08:18:14.338Z,99421.84
2022-10-18T08:20:45.396Z,99419.00
2022-10-18T08:23:12.195Z,99425.09
2022-10-18T08:25:38.919Z,99431.59
2022-10-18T08:28:06.503Z,99437.44
2022-10-18T08:30:34.638Z,99438.19
2022-10-18T08:33:01.292Z,99437.72
2022-10-18T08:35:27.967Z,99442.84
2022-10-18T08:37:54.943Z,99435.72
2022-10-18T08:40:21.719Z,99439.88
2022-10-18T08:43:10.079Z,99433.06
2022-10-18T08:45:42.923Z,99436.47
2022-10-18T08:48:48.800Z,99437.75
2022-10-18T08:51:27.257Z,99441.00
2022-10-18T08:54:02.578Z,99438.69
2022-10-18T08:56:29.341Z,99434.84
2022-10-18T08:58:56.009Z,99441.06
2022-10-18T09:01:33.850Z,99436.41
2022-10-18T09:04:17.999Z,99442.94
2022-10-18T09:06:44.627Z,99447.38
2022-10-18T09:09:25.617Z,99445.66
2022-10-18T09:12:07.404Z,99456.28
2022-10-18T09:15:01.962Z,99458.09
2022-10-18T09:17:53.541Z,99456.66
2022-10-18T09:20:32.295Z,99452.72
2022-10-18T09:23:02.461Z,99456.47
2022-10-18T09:25:55.530Z,99454.72
2022-10-18T09:28:46.693Z,99455.50
2022-10-18T09:31:21.991Z,99455.91
2022-10-18T09:34:13.909Z,99455.19
2022-10-18T09:36:41.752Z,99451.94
2022-10-18T09:39:14.985Z,99457.50
2022-10-18T09:41:52.050Z,99454.50
2022-10-18T09:44:23.928Z,99454.78
2022-10-18T09:47:00.458Z,99461.47
2022-10-18T09:49:32.713Z,99461.34
2022-10-18T09:52:05.811Z,99452.25
2022-10-18T09:54:40.077Z,99458.97
2022-10-18T09:57:15.052Z,99464.19
2022-10-18T09:59:43.806Z,99462.38
2022-10-18T10:02:14.975Z,99461.81
2022-10-18T10:04:41.688Z,99472.03
2022-10-18T10:07:13.326Z,99472.59
2022-10-18T10:09:57.463Z,99474.78
2022-10-18T10:12:33.193Z,99474.34
2022-10-18T10:15:20.255Z,99472.09
2022-10-18T10:18:17.583Z,99474.47
2022-10-18T10:20:47.463Z,99470.50
2022-10-18T10:23:20.958Z,99480.28
2022-10-18T10:25:53.686Z,99473.56
2022-10-18T10:28:28.970Z,99488.50
2022-10-18T10:31:18.768Z,99474.56
2022-10-18T10:33:47.462Z,99473.78
2022-10-18T10:36:19.637Z,99472.31
2022-10-18T10:38:46.367Z,99473.31
2022-10-18T10:41:21.992Z,99474.91
2022-10-18T10:43:49.967Z,99472.72
2022-10-18T10:46:19.117Z,99468.50
2022-10-18T10:48:45.794Z,99468.25
2022-10-18T10:51:13.086Z,99471.03
2022-10-18T10:54:04.102Z,99473.38
2022-10-18T10:56:51.367Z,99472.25
2022-10-18T10:59:20.367Z,99473.22
2022-10-18T11:01:49.699Z,99484.78
2022-10-18T11:04:30.623Z,99478.44
2022-10-18T11:07:06.247Z,99488.09
2022-10-18T11:09:51.542Z,99487.31
2022-10-18T11:12:24.589Z,99483.63
2022-10-18T11:15:09.865Z,99490.97
2022-10-18T11:17:45.030Z,99497.69
2022-10-18T11:20:24.017Z,99492.31
2022-10-18T11:22:56.691Z,99490.09
2022-10-18T11:25:28.871Z,99480.44
2022-10-18T11:28:05.430Z,99481.41
2022-10-18T11:30:55.334Z,99484.63
2022-10-18T11:34:07.490Z,99484.66
2022-10-18T11:36:57.953Z,99471.47
2022-10-18T11:39:58.738Z,99470.97
2022-10-18T11:42:31.276Z,99471.56
2022-10-18T11:45:22.973Z,99472.16
2022-10-18T11:47:58.714Z,99473.91
2022-10-18T11:50:43.684Z,99470.16
2022-10-18T11:53:31.448Z,99475.78
2022-10-18T11:56:03.883Z,99465.94
2022-10-18T11:58:53.516Z,99467.84
2022-10-18T12:01:47.341Z,99461.03
2022-10-18T12:04:20.696Z,99465.94
2022-10-18T12:06:52.032Z,99462.84
2022-10-18T12:12:27.508Z,99457.44
2022-10-18T12:14:58.763Z,99455.47
2022-10-18T12:17:50.045Z,99454.69
2022-10-18T12:20:32.083Z,99450.25
2022-10-18T12:23:03.664Z,99449.22
2022-10-18T12:25:33.909Z,99455.22
2022-10-18T12:28:29.112Z,99449.06
2022-10-18T12:31:04.700Z,99456.63
2022-10-18T12:33:38.337Z,99457.69
2022-10-18T12:36:23.248Z,99458.97
2022-10-18T12:38:54.789Z,99451.06
2022-10-18T12:41:33.420Z,99453.59
2022-10-18T12:44:06.621Z,99450.81
2022-10-18T12:46:44.241Z,99451.69
2022-10-18T12:49:13.444Z,99449.16
2022-10-18T12:51:59.316Z,99451.84
2022-10-18T12:54:38.284Z,99456.75
2022-10-18T12:57:17.344Z,99447.88
2022-10-18T12:59:44.243Z,99451.28
2022-10-18T13:02:23.903Z,99439.19
2022-10-18T13:04:50.779Z,99443.91
2022-10-18T13:07:40.871Z,99438.25
2022-10-18T13:10:10.593Z,99449.06
2022-10-18T13:12:43.585Z,99442.25
2022-10-18T13:15:34.959Z,99436.47
2022-10-18T13:18:34.024Z,99438.56
2022-10-18T13:21:22.668Z,99433.31
2022-10-18T13:24:09.242Z,99430.28
2022-10-18T13:27:31.104Z,99423.13
2022-10-18T13:30:18.839Z,99431.69
2022-10-18T13:32:57.404Z,99439.41
2022-10-18T13:35:49.049Z,99436.38
2022-10-18T13:38:42.301Z,99438.88
2022-10-18T13:41:12.090Z,99441.06
2022-10-18T13:43:57.006Z,99436.19
2022-10-18T13:46:34.006Z,99431.78
2022-10-18T13:49:20.101Z,99439.63
2022-10-18T13:52:08.344Z,99436.88
2022-10-18T13:54:51.337Z,99436.59
2022-10-18T13:57:36.229Z,99442.38
2022-10-18T14:00:18.103Z,99444.97
2022-10-18T14:03:59.057Z,99440.88
2022-10-18T14:06:22.596Z,99443.81
2022-10-18T14:09:26.467Z,99440.16
2022-10-18T14:12:21.847Z,99440.16
2022-10-18T14:14:56.336Z,99446.50
2022-10-18T14:17:44.668Z,99440.69
2022-10-18T14:20:24.777Z,99445.25
2022-10-18T14:23:04.958Z,99442.09
2022-10-18T14:25:35.718Z,99450.19
2022-10-18T14:28:27.394Z,99441.69
2022-10-18T14:31:07.135Z,99445.25
2022-10-18T14:33:33.775Z,99449.47
2022-10-18T14:36:00.317Z,99447.25
2022-10-18T14:38:27.370Z,99450.72
2022-10-18T14:41:23.787Z,99443.41
2022-10-18T14:43:51.942Z,99442.00
2022-10-18T14:46:28.154Z,99438.69
2022-10-18T14:49:00.588Z,99444.97
2022-10-18T14:51:32.629Z,99434.78
2022-10-18T14:54:00.285Z,99444.16
2022-10-18T14:56:27.164Z,99434.34
2022-10-18T14:58:56.067Z,99433.72
2022-10-18T15:01:25.841Z,99428.31
2022-10-18T15:04:06.589Z,99433.75
2022-10-18T15:06:33.433Z,99432.03
2022-10-18T15:09:04.179Z,99433.75
2022-10-18T15:11:31.380Z,99436.06
2022-10-18T15:14:02.980Z,99432.34
2022-10-18T15:16:31.422Z,99441.78
2022-10-18T15:19:02.533Z,99446.00
2022-10-18T15:21:29.238Z,99445.72
2022-10-18T15:24:20.171Z,99441.91
2022-10-18T15:26:49.058Z,99445.50
2022-10-18T15:29:20.102Z,99449.31
2022-10-18T15:31:49.406Z,99443.38
2022-10-18T15:34:26.955Z,99442.09
2022-10-18T15:36:55.757Z,99445.88
2022-10-18T15:39:27.763Z,99442.63
2022-10-18T15:41:59.908Z,99432.91
2022-10-18T15:44:31.831Z,99441.25
2022-10-18T15:47:13.722Z,99440.31
2022-10-18T15:49:46.268Z,99435.13
2022-10-18T15:52:28.131Z,99432.09
2022-10-18T15:54:55.985Z,99436.13
2022-10-18T15:57:25.673Z,99433.81
2022-10-18T16:00:00.479Z,99429.53
2022-10-18T16:02:28.114Z,99434.25
2022-10-18T16:04:54.761Z,99427.28
2022-10-18T16:07:21.468Z,99421.34
2022-10-18T16:09:48.080Z,99420.75
2022-10-18T16:12:14.680Z,99415.59
2022-10-18T16:14:41.337Z,99415.16
2022-10-18T16:17:16.864Z,99425.06
2022-10-18T16:19:44.899Z,99414.47
2022-10-18T16:24:40.691Z,99409.50
2022-10-18T16:27:09.685Z,99408.16
2022-10-18T16:29:36.371Z,99410.56
2022-10-18T16:32:03.153Z,99419.41
2022-10-18T16:34:32.070Z,99410.34
2022-10-18T16:36:59.239Z,99412.22
2022-10-18T16:39:25.976Z,99409.69
2022-10-18T16:41:52.736Z,99414.13
2022-10-18T16:44:19.586Z,99408.97
2022-10-18T16:46:49.883Z,99403.00
2022-10-18T16:49:24.591Z,99417.38
2022-10-18T16:51:55.233Z,99416.63
2022-10-18T16:54:22.902Z,99423.03
2022-10-18T16:56:50.063Z,99417.78
2022-10-18T16:59:31.345Z,99430.72
2022-10-18T17:01:58.195Z,99427.31
2022-10-18T17:04:24.856Z,99437.44
2022-10-18T17:06:54.420Z,99441.88
2022-10-18T17:09:21.255Z,99443.81
2022-10-18T17:11:47.976Z,99443.72
2022-10-18T17:14:14.634Z,99450.19
2022-10-18T17:16:43.607Z,99456.63
2022-10-18T17:19:12.344Z,99458.44
2022-10-18T17:21:39.006Z,99459.22
2022-10-18T17:24:06.199Z,99459.19
2022-10-18T17:26:33.582Z,99464.53
2022-10-18T17:29:06.102Z,99464.59
2022-10-18T17:31:33.198Z,99452.78
2022-10-18T17:34:02.056Z,99464.53
2022-10-18T17:36:30.172Z,99461.88
2022-10-18T17:38:57.568Z,99470.06
2022-10-18T17:41:24.507Z,99464.59
2022-10-18T17:43:51.281Z,99464.81
2022-10-18T17:46:18.145Z,99469.56
2022-10-18T17:48:45.535Z,99474.06
2022-10-18T17:51:15.374Z,99473.06
2022-10-18T17:53:42.133Z,99475.75
2022-10-18T17:56:10.613Z,99474.81
2022-10-18T17:58:37.292Z,99477.59
2022-10-18T18:01:09.857Z,99477.88
2022-10-18T18:03:37.116Z,99472.59
2022-10-18T18:06:21.870Z,99475.31
2022-10-18T18:08:49.741Z,99481.69
2022-10-18T18:11:17.297Z,99482.63
2022-10-18T18:13:44.049Z,99481.81
2022-10-18T18:16:22.096Z,99481.81
2022-10-18T18:18:51.476Z,99479.81
2022-10-18T18:21:18.888Z,99478.13
2022-10-18T18:23:45.947Z,99477.25
2022-10-18T18:26:14.350Z,99474.53
2022-10-18T18:28:41.670Z,99470.75
2022-10-18T18:31:14.480Z,99479.06
2022-10-18T18:33:41.815Z,99481.00
2022-10-18T18:36:08.720Z,99483.06
2022-10-18T18:38:37.730Z,99476.22
2022-10-18T18:41:09.470Z,99476.34
2022-10-18T18:43:37.053Z,99475.41
2022-10-18T18:46:04.506Z,99479.84
2022-10-18T18:48:33.707Z,99467.44
2022-10-18T18:51:01.003Z,99465.06
2022-10-18T18:53:29.649Z,99463.69
2022-10-18T18:56:05.278Z,99464.59
2022-10-18T18:58:32.607Z,99465.47
2022-10-18T19:00:59.339Z,99461.03
2022-10-18T19:03:26.008Z,99472.63
2022-10-18T19:06:02.595Z,99462.84
2022-10-18T19:08:29.240Z,99471.94
2022-10-18T19:10:55.876Z,99463.97
2022-10-18T19:13:22.529Z,99471.31
2022-10-18T19:15:49.160Z,99466.34
2022-10-18T19:18:19.253Z,99467.38
2022-10-18T19:20:48.276Z,99471.13
2022-10-18T19:23:15.025Z,99464.22
2022-10-18T19:25:41.697Z,99459.78
2022-10-18T19:28:08.450Z,99457.34
2022-10-18T19:30:35.079Z,99460.88
2022-10-18T19:33:04.400Z,99463.56
2022-10-18T19:35:31.041Z,99474.25
2022-10-18T19:37:57.713Z,99470.97
2022-10-18T19:40:24.561Z,99468.34
2022-10-18T19:42:51.220Z,99465.81
2022-10-18T19:45:17.848Z,99456.81
2022-10-18T19:47:44.498Z,99452.63
2022-10-18T19:50:11.172Z,99459.69
2022-10-18T19:52:37.843Z,99464.38
2022-10-18T19:55:05.008Z,99454.72
2022-10-18T19:57:31.635Z,99469.19
2022-10-18T19:59:59.162Z,99459.69
2022-10-18T20:02:27.407Z,99458.09
2022-10-18T20:04:54.979Z,99462.69
2022-10-18T20:07:23.788Z,99462.97
2022-10-18T20:09:50.554Z,99452.41
2022-10-18T20:12:17.462Z,99459.53
2022-10-18T20:14:44.361Z,99462.25
2022-10-18T20:17:13.729Z,99455.38
2022-10-18T20:19:40.989Z,99460.13
2022-10-18T20:22:09.879Z,99471.19
2022-10-18T20:24:38.088Z,99466.84
2022-10-18T20:27:06.183Z,99456.25
2022-10-18T20:29:33.518Z,99458.09
2022-10-18T20:32:00.270Z,99455.53
2022-10-18T20:34:28.438Z,99457.41
2022-10-18T20:36:55.509Z,99455.75
2022-10-18T20:39:22.396Z,99449.53
2022-10-18T20:41:49.217Z,99452.25
2022-10-18T20:44:19.212Z,99447.84
2022-10-18T20:46:45.854Z,99457.91
2022-10-18T20:49:15.137Z,99458.06
2022-10-18T20:51:41.965Z,99457.53
2022-10-18T20:54:09.995Z,99453.28
2022-10-18T20:56:38.589Z,99456.97
2022-10-18T20:59:09.338Z,99461.59
2022-10-18T21:01:37.619Z,99451.72
2022-10-18T21:04:06.532Z,99448.19
2022-10-18T21:06:41.277Z,99452.53
2022-10-18T21:09:13.453Z,99442.72
2022-10-18T21:11:43.234Z,99451.78
2022-10-18T21:14:13.519Z,99443.91
2022-10-18T21:16:40.230Z,99438.66
2022-10-18T21:19:10.075Z,99444.13
2022-10-18T21:21:36.964Z,99433.50
2022-10-18T21:24:06.942Z,99438.91
2022-10-18T21:26:35.221Z,99439.75
2022-10-18T21:29:02.464Z,99431.22
2022-10-18T21:31:37.315Z,99423.34
2022-10-18T21:34:06.597Z,99426.84
2022-10-18T21:36:35.545Z,99425.88
2022-10-18T21:39:08.251Z,99429.44
2022-10-18T21:41:36.261Z,99432.91
2022-10-18T21:44:05.707Z,99435.63
2022-10-18T21:46:35.242Z,99430.31
2022-10-18T21:49:01.872Z,99425.81
2022-10-18T21:51:28.585Z,99424.88
2022-10-18T21:53:57.411Z,99431.06
2022-10-18T21:56:27.297Z,99434.78
2022-10-18T21:58:54.641Z,99426.59
2022-10-18T22:01:40.592Z,99431.09
2022-10-18T22:04:18.187Z,99425.72
2022-10-18T22:06:44.925Z,99420.47
2022-10-18T22:09:11.651Z,99423.97
2022-10-18T22:11:42.956Z,99415.22
2022-10-18T22:14:10.036Z,99420.75
2022-10-18T22:16:36.814Z,99421.69
2022-10-18T22:19:04.937Z,99422.56
2022-10-18T22:21:32.307Z,99410.81
2022-10-18T22:23:59.450Z,99421.31
2022-10-18T22:26:32.057Z,99427.41
2022-10-18T22:29:01.566Z,99422.94
2022-10-18T22:31:31.384Z,99436.22
2022-10-18T22:34:00.546Z,99428.94
2022-10-18T22:36:27.798Z,99427.84
2022-10-18T22:38:54.735Z,99427.06
2022-10-18T22:41:21.789Z,99422.31
2022-10-18T22:43:50.776Z,99434.84
2022-10-18T22:46:17.569Z,99426.25
2022-10-18T22:48:44.538Z,99426.03
2022-10-18T22:51:11.839Z,99420.03
2022-10-18T22:53:39.765Z,99422.06
2022-10-18T22:56:07.700Z,99422.28
2022-10-18T22:58:34.507Z,99416.06
2022-10-18T23:01:07.191Z,99419.38
2022-10-18T23:03:34.416Z,99419.03
2022-10-18T23:06:01.366Z,99424.38
2022-10-18T23:08:28.828Z,99424.47
2022-10-18T23:10:58.180Z,99415.56
2022-10-18T23:13:26.178Z,99416.56
2022-10-18T23:15:53.145Z,99417.50
2022-10-18T23:18:19.840Z,99418.41
2022-10-18T23:20:46.510Z,99416.81
2022-10-18T23:23:13.575Z,99407.91
2022-10-18T23:25:40.243Z,99419.63
2022-10-18T23:28:07.317Z,99407.16
2022-10-18T23:30:34.255Z,99406.25
2022-10-18T23:33:01.053Z,99400.91
2022-10-18T23:35:29.312Z,99401.50
2022-10-18T23:37:55.941Z,99395.19
2022-10-18T23:40:22.633Z,99402.59
2022-10-18T23:42:49.271Z,99392.78
2022-10-18T23:45:15.927Z,99401.66
2022-10-18T23:47:42.613Z,99391.56
2022-10-18T23:50:09.482Z,99396.88
2022-10-18T23:52:36.103Z,99399.78
2022-10-18T23:55:02.806Z,99395.38
2022-10-18T23:57:30.937Z,99390.25
2022-10-18T23:59:57.755Z,99389.72
